createdAt,value
2018-07-23T00:03:50.404Z,94.00
2018-07-23T00:13:53.421Z,96.30
2018-07-23T00:23:56.457Z,95.20
2018-07-23T00:33:59.539Z,95.80
2018-07-23T00:44:02.652Z,96.60
2018-07-23T00:54:11.935Z,97.10
2018-07-23T01:04:14.945Z,97.60
2018-07-23T01:14:18.005Z,98.70
2018-07-23T01:24:21.033Z,99.90
2018-07-23T01:34:24.097Z,99.90
2018-07-23T01:44:27.136Z,99.90
2018-07-23T01:54:30.137Z,99.50
2018-07-23T02:04:36.521Z,99.40
2018-07-23T02:14:39.542Z,98.70
2018-07-23T02:24:42.681Z,98.80
2018-07-23T02:34:45.719Z,99.90
2018-07-23T02:44:48.717Z,99.90
2018-07-23T02:54:51.746Z,99.00
2018-07-23T03:04:55.496Z,98.10
2018-07-23T03:14:58.570Z,97.70
2018-07-23T03:25:01.614Z,97.80
2018-07-23T03:35:04.662Z,97.20
2018-07-23T03:45:07.743Z,96.80
2018-07-23T03:55:10.761Z,96.80
2018-07-23T04:05:13.775Z,97.20
2018-07-23T04:15:16.783Z,98.40
2018-07-23T04:25:19.925Z,98.40
2018-07-23T04:35:22.946Z,98.20
2018-07-23T04:45:26.051Z,98.80
2018-07-23T04:55:29.090Z,99.60
2018-07-23T05:05:32.093Z,99.90
2018-07-23T05:15:35.125Z,99.90
2018-07-23T05:25:38.228Z,99.90
2018-07-23T05:35:41.222Z,99.90
2018-07-23T05:45:44.261Z,99.90
2018-07-23T05:55:47.274Z,99.90
2018-07-23T06:05:50.319Z,99.90
2018-07-23T06:15:53.373Z,99.90
2018-07-23T06:25:56.403Z,99.90
2018-07-23T06:35:59.417Z,99.90
2018-07-23T06:46:03.525Z,99.90
2018-07-23T06:56:07.557Z,99.90
2018-07-23T07:06:10.593Z,99.60
2018-07-23T07:16:13.642Z,99.90
2018-07-23T07:36:21.870Z,98.90
2018-07-23T07:46:24.889Z,97.90
2018-07-23T07:56:27.903Z,97.40
2018-07-23T08:06:30.921Z,97.00
2018-07-23T08:16:34.028Z,93.80
2018-07-23T08:26:37.058Z,93.70
2018-07-23T08:36:41.153Z,94.80
2018-07-23T08:46:44.193Z,92.80
2018-07-23T09:06:50.079Z,93.00
2018-07-23T09:16:53.121Z,91.20
2018-07-23T09:26:56.381Z,86.40
2018-07-23T09:37:00.305Z,89.00
2018-07-23T09:47:03.325Z,90.10
2018-07-23T09:57:06.406Z,78.00
2018-07-23T10:07:09.438Z,79.40
2018-07-23T10:27:16.709Z,72.00
2018-07-23T10:37:19.730Z,68.90
2018-07-23T10:47:22.939Z,74.50
2018-07-23T10:57:25.969Z,72.90
2018-07-23T11:07:29.022Z,69.40
2018-07-23T11:17:32.080Z,72.50
2018-07-23T11:27:35.283Z,69.60
2018-07-23T11:37:38.324Z,73.80
2018-07-23T11:47:41.326Z,70.00
2018-07-23T11:57:44.354Z,60.70
2018-07-23T12:07:47.393Z,66.50
2018-07-23T12:17:50.461Z,65.00
2018-07-23T12:27:53.533Z,64.00
2018-07-23T12:37:56.593Z,61.80
2018-07-23T12:58:02.471Z,60.40
2018-07-23T13:08:05.517Z,58.60
2018-07-23T13:28:11.354Z,60.20
2018-07-23T13:38:14.524Z,59.40
2018-07-23T13:48:17.479Z,58.40
2018-07-23T14:08:23.309Z,58.60
2018-07-23T14:18:26.320Z,56.80
2018-07-23T14:28:29.333Z,57.10
2018-07-23T14:38:32.403Z,56.60
2018-07-23T14:48:35.819Z,56.60
2018-07-23T14:58:38.868Z,55.80
2018-07-23T15:08:41.873Z,55.00
2018-07-23T15:18:44.905Z,54.00
2018-07-23T15:28:47.922Z,53.10
2018-07-23T15:38:50.934Z,54.70
2018-07-23T15:48:53.962Z,52.20
2018-07-23T15:58:57.254Z,51.80
2018-07-23T16:09:00.250Z,52.00
2018-07-23T16:29:06.107Z,53.80
2018-07-23T16:39:11.021Z,53.00
2018-07-23T16:49:14.347Z,53.80
2018-07-23T16:59:17.353Z,54.60
2018-07-23T17:09:20.381Z,55.70
2018-07-23T17:19:23.414Z,55.60
2018-07-23T17:29:26.431Z,56.70
2018-07-23T17:39:29.453Z,57.00
2018-07-23T17:49:32.497Z,56.90
2018-07-23T17:59:35.617Z,57.30
2018-07-23T18:09:38.657Z,57.80
2018-07-23T18:19:41.873Z,58.50
2018-07-23T18:29:44.990Z,58.80
2018-07-23T18:39:48.142Z,60.00
2018-07-23T18:49:54.144Z,61.10
2018-07-23T18:59:57.201Z,62.40
2018-07-23T19:10:00.187Z,63.90
2018-07-23T19:20:03.289Z,64.50
2018-07-23T19:30:06.377Z,66.00
2018-07-23T19:40:09.406Z,67.00
2018-07-23T19:50:12.424Z,71.20
2018-07-23T20:00:15.457Z,72.90
2018-07-23T20:10:18.489Z,74.90
2018-07-23T20:20:23.065Z,74.60
2018-07-23T20:30:26.494Z,74.50
2018-07-23T20:40:40.260Z,73.90
2018-07-23T20:50:50.701Z,73.30
2018-07-23T21:00:53.837Z,74.10
2018-07-23T21:10:57.033Z,74.60
2018-07-23T21:21:00.061Z,75.60
2018-07-23T21:31:03.105Z,75.70
2018-07-23T21:41:06.125Z,75.90
2018-07-23T21:51:09.129Z,77.00
2018-07-23T22:01:13.313Z,77.60
2018-07-23T22:11:16.321Z,78.50
2018-07-23T22:21:19.361Z,78.60
2018-07-23T22:31:22.421Z,79.20
2018-07-23T22:41:25.465Z,80.80
2018-07-23T22:51:28.491Z,81.40
2018-07-23T23:01:32.505Z,81.80
2018-07-23T23:11:35.516Z,81.80
2018-07-23T23:21:38.573Z,82.10
2018-07-23T23:31:41.640Z,82.90
2018-07-23T23:41:44.657Z,83.80
2018-07-23T23:51:47.703Z,84.20
